sensor_id;sensor_type;location;lat;lon;timestamp;P1;durP1;ratioP1;P2;durP2;ratioP2
59161;SDS011;44942;48.936;8.260;2022-10-26T00:04:28;5.13;;;2.83;;
59161;SDS011;44942;48.936;8.260;2022-10-26T00:09:29;4.23;;;2.77;;
59161;SDS011;44942;48.936;8.260;2022-10-26T00:14:29;3.60;;;2.40;;
59161;SDS011;44942;48.936;8.260;2022-10-26T00:19:33;5.32;;;2.80;;
59161;SDS011;44942;48.936;8.260;2022-10-26T00:24:34;3.22;;;2.38;;
59161;SDS011;44942;48.936;8.260;2022-10-26T00:29:34;4.07;;;2.40;;
59161;SDS011;44942;48.936;8.260;2022-10-26T00:34:35;5.00;;;2.80;;
59161;SDS011;44942;48.936;8.260;2022-10-26T00:39:36;4.17;;;2.60;;
59161;SDS011;44942;48.936;8.260;2022-10-26T00:49:46;4.10;;;2.53;;
59161;SDS011;44942;48.936;8.260;2022-10-26T00:54:48;3.75;;;2.78;;
59161;SDS011;44942;48.936;8.260;2022-10-26T00:59:50;5.13;;;2.63;;
59161;SDS011;44942;48.936;8.260;2022-10-26T01:04:54;3.95;;;2.35;;
59161;SDS011;44942;48.936;8.260;2022-10-26T01:09:55;5.63;;;2.40;;
59161;SDS011;44942;48.936;8.260;2022-10-26T01:14:56;4.75;;;2.80;;
59161;SDS011;44942;48.936;8.260;2022-10-26T01:31:02;3.60;;;2.90;;
59161;SDS011;44942;48.936;8.260;2022-10-26T01:36:12;3.75;;;2.55;;
59161;SDS011;44942;48.936;8.260;2022-10-26T01:41:28;4.03;;;2.70;;
59161;SDS011;44942;48.936;8.260;2022-10-26T01:46:37;2.92;;;2.20;;
59161;SDS011;44942;48.936;8.260;2022-10-26T01:51:42;3.95;;;2.50;;
59161;SDS011;44942;48.936;8.260;2022-10-26T01:56:45;3.45;;;2.35;;
59161;SDS011;44942;48.936;8.260;2022-10-26T02:12:37;3.80;;;2.50;;
59161;SDS011;44942;48.936;8.260;2022-10-26T02:17:58;3.13;;;2.60;;
59161;SDS011;44942;48.936;8.260;2022-10-26T02:23:17;3.53;;;2.20;;
59161;SDS011;44942;48.936;8.260;2022-10-26T02:28:23;3.55;;;2.60;;
59161;SDS011;44942;48.936;8.260;2022-10-26T02:33:29;3.92;;;2.30;;
59161;SDS011;44942;48.936;8.260;2022-10-26T02:38:34;2.88;;;2.10;;
59161;SDS011;44942;48.936;8.260;2022-10-26T02:43:37;3.30;;;2.58;;
59161;SDS011;44942;48.936;8.260;2022-10-26T02:48:46;3.80;;;2.53;;
59161;SDS011;44942;48.936;8.260;2022-10-26T02:53:52;3.53;;;2.40;;
59161;SDS011;44942;48.936;8.260;2022-10-26T02:59:03;3.35;;;2.20;;
59161;SDS011;44942;48.936;8.260;2022-10-26T03:04:05;3.45;;;2.30;;
59161;SDS011;44942;48.936;8.260;2022-10-26T03:09:06;5.55;;;2.47;;
59161;SDS011;44942;48.936;8.260;2022-10-26T03:14:07;3.00;;;2.20;;
59161;SDS011;44942;48.936;8.260;2022-10-26T03:19:07;4.50;;;2.50;;
59161;SDS011;44942;48.936;8.260;2022-10-26T03:24:08;4.47;;;2.30;;
59161;SDS011;44942;48.936;8.260;2022-10-26T03:29:09;3.60;;;2.38;;
59161;SDS011;44942;48.936;8.260;2022-10-26T03:34:09;4.07;;;2.53;;
59161;SDS011;44942;48.936;8.260;2022-10-26T03:39:10;3.50;;;2.47;;
59161;SDS011;44942;48.936;8.260;2022-10-26T03:44:10;3.97;;;2.50;;
59161;SDS011;44942;48.936;8.260;2022-10-26T03:49:11;3.00;;;2.10;;
59161;SDS011;44942;48.936;8.260;2022-10-26T03:54:12;3.27;;;2.27;;
59161;SDS011;44942;48.936;8.260;2022-10-26T03:59:12;2.97;;;2.17;;
59161;SDS011;44942;48.936;8.260;2022-10-26T04:04:13;6.17;;;2.23;;
59161;SDS011;44942;48.936;8.260;2022-10-26T04:09:13;3.63;;;2.40;;
59161;SDS011;44942;48.936;8.260;2022-10-26T04:14:14;3.27;;;2.30;;
59161;SDS011;44942;48.936;8.260;2022-10-26T04:19:14;3.03;;;2.17;;
59161;SDS011;44942;48.936;8.260;2022-10-26T04:24:15;2.77;;;2.23;;
59161;SDS011;44942;48.936;8.260;2022-10-26T04:29:15;3.20;;;2.07;;
59161;SDS011;44942;48.936;8.260;2022-10-26T04:34:16;2.83;;;2.07;;
59161;SDS011;44942;48.936;8.260;2022-10-26T04:39:17;3.57;;;2.03;;
59161;SDS011;44942;48.936;8.260;2022-10-26T04:44:17;3.13;;;2.30;;
59161;SDS011;44942;48.936;8.260;2022-10-26T04:49:18;3.77;;;2.27;;
59161;SDS011;44942;48.936;8.260;2022-10-26T04:54:18;3.13;;;2.20;;
59161;SDS011;44942;48.936;8.260;2022-10-26T04:59:19;5.97;;;2.00;;
59161;SDS011;44942;48.936;8.260;2022-10-26T05:04:20;2.63;;;1.97;;
59161;SDS011;44942;48.936;8.260;2022-10-26T05:09:20;4.43;;;2.10;;
59161;SDS011;44942;48.936;8.260;2022-10-26T05:14:21;3.43;;;2.00;;
59161;SDS011;44942;48.936;8.260;2022-10-26T05:19:21;6.47;;;2.40;;
59161;SDS011;44942;48.936;8.260;2022-10-26T05:24:22;4.13;;;2.20;;
59161;SDS011;44942;48.936;8.260;2022-10-26T05:29:22;3.00;;;2.13;;
59161;SDS011;44942;48.936;8.260;2022-10-26T05:34:23;15.40;;;8.50;;
59161;SDS011;44942;48.936;8.260;2022-10-26T05:39:23;18.67;;;10.03;;
59161;SDS011;44942;48.936;8.260;2022-10-26T05:44:24;25.30;;;10.87;;
59161;SDS011;44942;48.936;8.260;2022-10-26T05:49:24;27.83;;;16.77;;
59161;SDS011;44942;48.936;8.260;2022-10-26T05:54:25;18.60;;;11.43;;
59161;SDS011;44942;48.936;8.260;2022-10-26T05:59:26;16.90;;;8.23;;
59161;SDS011;44942;48.936;8.260;2022-10-26T06:04:32;17.20;;;7.40;;
59161;SDS011;44942;48.936;8.260;2022-10-26T06:09:37;12.83;;;7.50;;
59161;SDS011;44942;48.936;8.260;2022-10-26T06:14:39;12.10;;;7.45;;
59161;SDS011;44942;48.936;8.260;2022-10-26T06:25:08;16.90;;;6.40;;
59161;SDS011;44942;48.936;8.260;2022-10-26T06:30:30;16.75;;;7.47;;
59161;SDS011;44942;48.936;8.260;2022-10-26T06:40:42;19.25;;;8.20;;
59161;SDS011;44942;48.936;8.260;2022-10-26T06:45:45;20.27;;;9.70;;
59161;SDS011;44942;48.936;8.260;2022-10-26T06:50:51;19.73;;;9.70;;
59161;SDS011;44942;48.936;8.260;2022-10-26T06:55:53;18.70;;;9.55;;
59161;SDS011;44942;48.936;8.260;2022-10-26T07:00:56;18.00;;;9.90;;
59161;SDS011;44942;48.936;8.260;2022-10-26T07:05:57;17.63;;;8.85;;
59161;SDS011;44942;48.936;8.260;2022-10-26T07:16:00;14.15;;;6.97;;
59161;SDS011;44942;48.936;8.260;2022-10-26T07:21:00;9.33;;;6.43;;
59161;SDS011;44942;48.936;8.260;2022-10-26T07:26:01;11.57;;;6.43;;
59161;SDS011;44942;48.936;8.260;2022-10-26T07:31:02;13.83;;;6.00;;
59161;SDS011;44942;48.936;8.260;2022-10-26T07:36:04;10.10;;;6.10;;
59161;SDS011;44942;48.936;8.260;2022-10-26T07:41:05;10.40;;;5.80;;
59161;SDS011;44942;48.936;8.260;2022-10-26T07:46:08;9.60;;;6.03;;
59161;SDS011;44942;48.936;8.260;2022-10-26T07:51:09;7.80;;;5.50;;
59161;SDS011;44942;48.936;8.260;2022-10-26T07:56:10;8.10;;;5.38;;
59161;SDS011;44942;48.936;8.260;2022-10-26T08:01:12;10.85;;;6.00;;
59161;SDS011;44942;48.936;8.260;2022-10-26T08:06:13;9.07;;;5.45;;
59161;SDS011;44942;48.936;8.260;2022-10-26T08:11:14;8.05;;;5.40;;
59161;SDS011;44942;48.936;8.260;2022-10-26T08:16:16;8.50;;;5.10;;
59161;SDS011;44942;48.936;8.260;2022-10-26T08:21:16;10.43;;;5.67;;
59161;SDS011;44942;48.936;8.260;2022-10-26T08:26:17;7.82;;;5.18;;
59161;SDS011;44942;48.936;8.260;2022-10-26T08:31:19;8.65;;;5.55;;
59161;SDS011;44942;48.936;8.260;2022-10-26T08:36:22;8.93;;;4.83;;
59161;SDS011;44942;48.936;8.260;2022-10-26T08:41:36;8.50;;;4.97;;
59161;SDS011;44942;48.936;8.260;2022-10-26T08:46:42;7.50;;;4.95;;
59161;SDS011;44942;48.936;8.260;2022-10-26T08:51:47;7.00;;;4.60;;
59161;SDS011;44942;48.936;8.260;2022-10-26T08:56:57;7.90;;;4.82;;
59161;SDS011;44942;48.936;8.260;2022-10-26T09:02:00;6.03;;;4.25;;
59161;SDS011;44942;48.936;8.260;2022-10-26T09:07:18;6.78;;;4.40;;
59161;SDS011;44942;48.936;8.260;2022-10-26T09:28:50;5.78;;;3.92;;
59161;SDS011;44942;48.936;8.260;2022-10-26T09:33:51;5.57;;;3.87;;
59161;SDS011;44942;48.936;8.260;2022-10-26T09:38:57;6.47;;;3.80;;
59161;SDS011;44942;48.936;8.260;2022-10-26T09:49:12;7.10;;;3.55;;
59161;SDS011;44942;48.936;8.260;2022-10-26T09:54:16;5.40;;;4.05;;
59161;SDS011;44942;48.936;8.260;2022-10-26T09:59:19;7.13;;;3.75;;
59161;SDS011;44942;48.936;8.260;2022-10-26T10:04:22;4.97;;;3.42;;
59161;SDS011;44942;48.936;8.260;2022-10-26T10:09:23;7.72;;;3.85;;
59161;SDS011;44942;48.936;8.260;2022-10-26T10:14:24;6.83;;;3.60;;
59161;SDS011;44942;48.936;8.260;2022-10-26T10:19:31;7.10;;;3.60;;
59161;SDS011;44942;48.936;8.260;2022-10-26T10:24:34;6.97;;;3.70;;
59161;SDS011;44942;48.936;8.260;2022-10-26T10:29:40;7.82;;;3.83;;
59161;SDS011;44942;48.936;8.260;2022-10-26T10:34:42;6.38;;;3.50;;
59161;SDS011;44942;48.936;8.260;2022-10-26T10:39:43;4.43;;;3.60;;
59161;SDS011;44942;48.936;8.260;2022-10-26T10:44:44;5.55;;;3.08;;
59161;SDS011;44942;48.936;8.260;2022-10-26T10:49:49;5.18;;;3.63;;
59161;SDS011;44942;48.936;8.260;2022-10-26T10:54:54;5.90;;;3.40;;
59161;SDS011;44942;48.936;8.260;2022-10-26T11:00:09;5.45;;;3.42;;
59161;SDS011;44942;48.936;8.260;2022-10-26T11:10:59;4.88;;;3.08;;
59161;SDS011;44942;48.936;8.260;2022-10-26T11:16:06;5.25;;;3.05;;
59161;SDS011;44942;48.936;8.260;2022-10-26T11:21:16;7.47;;;3.28;;
59161;SDS011;44942;48.936;8.260;2022-10-26T11:26:47;4.30;;;3.08;;
59161;SDS011;44942;48.936;8.260;2022-10-26T11:32:11;7.03;;;3.28;;
59161;SDS011;44942;48.936;8.260;2022-10-26T11:37:18;5.35;;;2.80;;
59161;SDS011;44942;48.936;8.260;2022-10-26T11:42:34;6.18;;;3.08;;
59161;SDS011;44942;48.936;8.260;2022-10-26T11:47:43;5.30;;;2.97;;
59161;SDS011;44942;48.936;8.260;2022-10-26T11:52:59;4.38;;;3.00;;
59161;SDS011;44942;48.936;8.260;2022-10-26T11:58:07;4.70;;;2.90;;
59161;SDS011;44942;48.936;8.260;2022-10-26T12:03:11;4.47;;;2.80;;
59161;SDS011;44942;48.936;8.260;2022-10-26T12:08:20;6.97;;;2.78;;
59161;SDS011;44942;48.936;8.260;2022-10-26T12:19:23;5.72;;;2.78;;
59161;SDS011;44942;48.936;8.260;2022-10-26T12:24:31;5.75;;;2.75;;
59161;SDS011;44942;48.936;8.260;2022-10-26T12:29:35;4.38;;;2.78;;
59161;SDS011;44942;48.936;8.260;2022-10-26T12:39:38;6.27;;;2.70;;
59161;SDS011;44942;48.936;8.260;2022-10-26T12:49:57;4.57;;;2.88;;
59161;SDS011;44942;48.936;8.260;2022-10-26T12:55:24;5.25;;;2.65;;
59161;SDS011;44942;48.936;8.260;2022-10-26T13:00:29;6.22;;;2.90;;
59161;SDS011;44942;48.936;8.260;2022-10-26T13:11:11;6.22;;;2.80;;
59161;SDS011;44942;48.936;8.260;2022-10-26T13:16:18;4.97;;;2.80;;
59161;SDS011;44942;48.936;8.260;2022-10-26T13:21:19;5.10;;;2.42;;
59161;SDS011;44942;48.936;8.260;2022-10-26T13:26:23;5.55;;;2.53;;
59161;SDS011;44942;48.936;8.260;2022-10-26T13:36:32;6.03;;;2.70;;
59161;SDS011;44942;48.936;8.260;2022-10-26T13:41:38;4.88;;;2.70;;
59161;SDS011;44942;48.936;8.260;2022-10-26T13:46:43;6.68;;;2.72;;
59161;SDS011;44942;48.936;8.260;2022-10-26T13:51:46;5.28;;;2.50;;
59161;SDS011;44942;48.936;8.260;2022-10-26T14:02:04;3.90;;;2.30;;
59161;SDS011;44942;48.936;8.260;2022-10-26T14:12:11;4.10;;;2.60;;
59161;SDS011;44942;48.936;8.260;2022-10-26T14:17:19;4.57;;;2.20;;
59161;SDS011;44942;48.936;8.260;2022-10-26T14:22:24;4.88;;;2.40;;
59161;SDS011;44942;48.936;8.260;2022-10-26T14:27:30;5.63;;;2.30;;
59161;SDS011;44942;48.936;8.260;2022-10-26T14:32:32;13.23;;;2.88;;
59161;SDS011;44942;48.936;8.260;2022-10-26T14:37:42;8.53;;;2.60;;
59161;SDS011;44942;48.936;8.260;2022-10-26T14:42:50;6.82;;;2.35;;
59161;SDS011;44942;48.936;8.260;2022-10-26T14:47:53;5.28;;;2.67;;
59161;SDS011;44942;48.936;8.260;2022-10-26T14:52:55;4.63;;;2.45;;
59161;SDS011;44942;48.936;8.260;2022-10-26T14:58:05;9.18;;;2.72;;
59161;SDS011;44942;48.936;8.260;2022-10-26T15:03:13;7.60;;;2.47;;
59161;SDS011;44942;48.936;8.260;2022-10-26T15:13:43;7.68;;;2.60;;
59161;SDS011;44942;48.936;8.260;2022-10-26T15:18:48;28.57;;;7.47;;
59161;SDS011;44942;48.936;8.260;2022-10-26T15:23:51;44.50;;;20.10;;
59161;SDS011;44942;48.936;8.260;2022-10-26T15:28:53;48.80;;;20.13;;
59161;SDS011;44942;48.936;8.260;2022-10-26T15:38:55;53.30;;;20.70;;
59161;SDS011;44942;48.936;8.260;2022-10-26T15:43:58;53.88;;;21.40;;
59161;SDS011;44942;48.936;8.260;2022-10-26T15:49:02;52.90;;;20.80;;
59161;SDS011;44942;48.936;8.260;2022-10-26T15:54:04;47.85;;;19.25;;
59161;SDS011;44942;48.936;8.260;2022-10-26T15:59:38;45.40;;;20.45;;
59161;SDS011;44942;48.936;8.260;2022-10-26T16:04:32;45.08;;;19.20;;
59161;SDS011;44942;48.936;8.260;2022-10-26T16:09:33;40.93;;;18.53;;
59161;SDS011;44942;48.936;8.260;2022-10-26T16:14:34;43.08;;;18.98;;
59161;SDS011;44942;48.936;8.260;2022-10-26T16:19:34;47.22;;;18.35;;
59161;SDS011;44942;48.936;8.260;2022-10-26T16:24:35;44.20;;;18.73;;
59161;SDS011;44942;48.936;8.260;2022-10-26T16:29:36;42.03;;;17.60;;
59161;SDS011;44942;48.936;8.260;2022-10-26T16:34:36;33.30;;;16.30;;
59161;SDS011;44942;48.936;8.260;2022-10-26T16:39:37;45.20;;;16.60;;
59161;SDS011;44942;48.936;8.260;2022-10-26T16:44:37;39.67;;;16.90;;
59161;SDS011;44942;48.936;8.260;2022-10-26T16:49:38;36.63;;;16.80;;
59161;SDS011;44942;48.936;8.260;2022-10-26T16:54:42;40.42;;;17.92;;
59161;SDS011;44942;48.936;8.260;2022-10-26T16:59:42;38.47;;;15.93;;
59161;SDS011;44942;48.936;8.260;2022-10-26T17:04:43;35.93;;;16.10;;
59161;SDS011;44942;48.936;8.260;2022-10-26T17:09:44;37.43;;;15.27;;
59161;SDS011;44942;48.936;8.260;2022-10-26T17:14:44;37.13;;;15.50;;
59161;SDS011;44942;48.936;8.260;2022-10-26T17:19:45;32.37;;;14.67;;
59161;SDS011;44942;48.936;8.260;2022-10-26T17:24:45;32.23;;;14.30;;
59161;SDS011;44942;48.936;8.260;2022-10-26T17:29:46;33.93;;;14.70;;
59161;SDS011;44942;48.936;8.260;2022-10-26T17:34:46;34.50;;;14.67;;
59161;SDS011;44942;48.936;8.260;2022-10-26T17:39:47;33.70;;;13.83;;
59161;SDS011;44942;48.936;8.260;2022-10-26T17:44:47;29.90;;;13.33;;
59161;SDS011;44942;48.936;8.260;2022-10-26T17:49:48;30.13;;;13.40;;
59161;SDS011;44942;48.936;8.260;2022-10-26T17:54:50;28.25;;;13.18;;
59161;SDS011;44942;48.936;8.260;2022-10-26T17:59:50;32.63;;;13.57;;
59161;SDS011;44942;48.936;8.260;2022-10-26T18:04:51;29.07;;;14.33;;
59161;SDS011;44942;48.936;8.260;2022-10-26T18:09:51;108.40;;;77.70;;
59161;SDS011;44942;48.936;8.260;2022-10-26T18:14:52;89.85;;;65.47;;
59161;SDS011;44942;48.936;8.260;2022-10-26T18:19:52;109.70;;;78.10;;
59161;SDS011;44942;48.936;8.260;2022-10-26T18:24:53;108.80;;;81.00;;
59161;SDS011;44942;48.936;8.260;2022-10-26T18:29:54;113.07;;;81.57;;
59161;SDS011;44942;48.936;8.260;2022-10-26T18:34:54;117.20;;;82.97;;
59161;SDS011;44942;48.936;8.260;2022-10-26T18:39:55;113.50;;;80.67;;
59161;SDS011;44942;48.936;8.260;2022-10-26T18:44:55;106.60;;;76.70;;
59161;SDS011;44942;48.936;8.260;2022-10-26T18:49:59;108.07;;;78.22;;
59161;SDS011;44942;48.936;8.260;2022-10-26T18:55:00;103.07;;;75.93;;
59161;SDS011;44942;48.936;8.260;2022-10-26T19:00:01;99.67;;;72.90;;
59161;SDS011;44942;48.936;8.260;2022-10-26T19:05:04;112.07;;;77.40;;
59161;SDS011;44942;48.936;8.260;2022-10-26T19:10:05;47.15;;;29.58;;
59161;SDS011;44942;48.936;8.260;2022-10-26T19:20:07;23.47;;;12.33;;
59161;SDS011;44942;48.936;8.260;2022-10-26T19:25:11;22.75;;;11.60;;
59161;SDS011;44942;48.936;8.260;2022-10-26T19:30:15;21.75;;;14.60;;
59161;SDS011;44942;48.936;8.260;2022-10-26T19:35:15;28.67;;;22.07;;
59161;SDS011;44942;48.936;8.260;2022-10-26T19:40:17;34.92;;;23.45;;
59161;SDS011;44942;48.936;8.260;2022-10-26T19:45:17;36.30;;;23.57;;
59161;SDS011;44942;48.936;8.260;2022-10-26T19:50:18;32.77;;;23.50;;
59161;SDS011;44942;48.936;8.260;2022-10-26T19:55:22;33.80;;;23.17;;
59161;SDS011;44942;48.936;8.260;2022-10-26T20:00:22;31.63;;;23.02;;
59161;SDS011;44942;48.936;8.260;2022-10-26T20:05:25;30.73;;;21.77;;
59161;SDS011;44942;48.936;8.260;2022-10-26T20:10:26;30.93;;;21.37;;
59161;SDS011;44942;48.936;8.260;2022-10-26T20:15:26;30.53;;;20.80;;
59161;SDS011;44942;48.936;8.260;2022-10-26T20:20:27;31.27;;;20.73;;
59161;SDS011;44942;48.936;8.260;2022-10-26T20:25:32;27.42;;;18.73;;
59161;SDS011;44942;48.936;8.260;2022-10-26T20:30:34;28.20;;;19.08;;
59161;SDS011;44942;48.936;8.260;2022-10-26T20:35:36;27.05;;;18.92;;
59161;SDS011;44942;48.936;8.260;2022-10-26T20:40:37;24.98;;;18.02;;
59161;SDS011;44942;48.936;8.260;2022-10-26T20:45:38;26.55;;;18.40;;
59161;SDS011;44942;48.936;8.260;2022-10-26T20:50:39;24.50;;;17.60;;
59161;SDS011;44942;48.936;8.260;2022-10-26T21:00:54;21.65;;;15.52;;
59161;SDS011;44942;48.936;8.260;2022-10-26T21:05:58;21.95;;;16.08;;
59161;SDS011;44942;48.936;8.260;2022-10-26T21:10:59;24.73;;;16.40;;
59161;SDS011;44942;48.936;8.260;2022-10-26T21:16:03;24.38;;;15.68;;
59161;SDS011;44942;48.936;8.260;2022-10-26T21:21:05;23.15;;;15.73;;
59161;SDS011;44942;48.936;8.260;2022-10-26T21:26:06;21.25;;;14.85;;
59161;SDS011;44942;48.936;8.260;2022-10-26T21:36:09;17.17;;;12.93;;
59161;SDS011;44942;48.936;8.260;2022-10-26T21:41:17;19.90;;;13.45;;
59161;SDS011;44942;48.936;8.260;2022-10-26T21:46:19;18.58;;;13.68;;
59161;SDS011;44942;48.936;8.260;2022-10-26T21:51:20;18.58;;;13.70;;
59161;SDS011;44942;48.936;8.260;2022-10-26T21:56:21;19.58;;;13.60;;
59161;SDS011;44942;48.936;8.260;2022-10-26T22:01:21;20.33;;;13.90;;
59161;SDS011;44942;48.936;8.260;2022-10-26T22:06:22;16.02;;;12.18;;
59161;SDS011;44942;48.936;8.260;2022-10-26T22:11:23;16.93;;;11.73;;
59161;SDS011;44942;48.936;8.260;2022-10-26T22:16:25;14.38;;;10.88;;
59161;SDS011;44942;48.936;8.260;2022-10-26T22:21:30;13.13;;;10.60;;
59161;SDS011;44942;48.936;8.260;2022-10-26T22:26:34;13.77;;;10.02;;
59161;SDS011;44942;48.936;8.260;2022-10-26T22:31:36;13.23;;;10.02;;
59161;SDS011;44942;48.936;8.260;2022-10-26T22:36:38;13.98;;;10.48;;
59161;SDS011;44942;48.936;8.260;2022-10-26T22:41:41;15.80;;;10.10;;
59161;SDS011;44942;48.936;8.260;2022-10-26T22:46:41;15.73;;;9.98;;
59161;SDS011;44942;48.936;8.260;2022-10-26T22:51:42;14.57;;;10.10;;
59161;SDS011;44942;48.936;8.260;2022-10-26T22:56:42;14.70;;;10.37;;
59161;SDS011;44942;48.936;8.260;2022-10-26T23:01:43;12.80;;;9.13;;
59161;SDS011;44942;48.936;8.260;2022-10-26T23:06:44;13.53;;;9.87;;
59161;SDS011;44942;48.936;8.260;2022-10-26T23:11:44;15.20;;;9.23;;
59161;SDS011;44942;48.936;8.260;2022-10-26T23:16:45;15.37;;;9.70;;
59161;SDS011;44942;48.936;8.260;2022-10-26T23:21:45;12.70;;;9.00;;
59161;SDS011;44942;48.936;8.260;2022-10-26T23:26:46;13.33;;;8.90;;
59161;SDS011;44942;48.936;8.260;2022-10-26T23:31:46;11.43;;;8.63;;
59161;SDS011;44942;48.936;8.260;2022-10-26T23:36:47;9.87;;;8.13;;
59161;SDS011;44942;48.936;8.260;2022-10-26T23:41:47;11.70;;;8.43;;
59161;SDS011;44942;48.936;8.260;2022-10-26T23:46:48;11.50;;;8.73;;
59161;SDS011;44942;48.936;8.260;2022-10-26T23:51:48;11.33;;;8.33;;
59161;SDS011;44942;48.936;8.260;2022-10-26T23:56:49;10.97;;;8.10;;
